Weather at Malden Regional Airport

Public forecast

Using degrees Fahrenheit for public forecast. Weather courtesy of forecast.io.

Closest aviation weather report (METAR) to Malden Regional Airport

Closest report is Poplar Bluff Municipal Airport, 19.1 nm (35.4 km) WNW. Retrieved 2020/10/24 21:53 UTC (1 hour ago):

KPOF 242153Z AUTO 07007KT 10SM BKN026 OVC036 09/04 A3007 RMK AO2 SLP184 T00940039

Closest aviation forecast (TAF) to Malden Regional Airport

Closest forecast is Cape Girardeau Regional Airport, 42.6 nm (78.9 km) NNE. Retrieved 2020/10/24 18:33 UTC (4 hours ago):

TAF KCGI 241730Z 2418/2518 03008KT P6SM BKN025 FM250800 04006KT P6SM OVC018